Time,TemperatureF,DewpointF,PressureIn,WindDirection,WindDirectionDegrees,WindSpeedMPH,WindSpeedGustMPH,Humidity,HourlyPrecipIn,Conditions,Clouds,dailyrainin,SoftwareType,DateUTC
2013-04-01 00:00:00,28.8,22.8,29.82,West,267,17.0,19.0,78,0.00,,,0.07,Wunderground v.1.15,2013-04-01 04:00:00,
2013-04-01 00:10:00,28.6,22.3,29.82,WNW,283,18.0,18.0,77,0.00,,,0.07,Wunderground v.1.15,2013-04-01 04:10:00,
2013-04-01 00:15:00,28.6,22.6,29.82,West,261,16.0,18.0,78,0.00,,,0.00,Wunderground v.1.15,2013-04-01 04:15:00,
2013-04-01 00:20:00,28.6,21.7,29.82,WNW,284,15.0,16.0,75,0.00,,,0.00,Wunderground v.1.15,2013-04-01 04:20:00,
2013-04-01 00:25:00,28.6,22.0,29.82,West,269,17.0,18.0,76,0.00,,,0.00,Wunderground v.1.15,2013-04-01 04:25:00,
2013-04-01 00:30:00,28.7,22.7,29.82,WSW,249,17.0,20.0,78,0.00,,,0.00,Wunderground v.1.15,2013-04-01 04:30:00,
2013-04-01 00:40:00,28.8,23.1,29.82,WSW,253,16.0,16.0,79,0.00,,,0.00,Wunderground v.1.15,2013-04-01 04:40:00,
2013-04-01 00:45:00,28.5,21.9,29.82,West,279,15.0,16.0,76,0.00,,,0.00,Wunderground v.1.15,2013-04-01 04:45:00,
2013-04-01 00:50:00,28.5,21.6,29.82,West,273,16.0,16.0,75,0.00,,,0.00,Wunderground v.1.15,2013-04-01 04:50:00,
2013-04-01 00:55:00,28.3,22.0,29.82,West,280,15.0,16.0,77,0.00,,,0.00,Wunderground v.1.15,2013-04-01 04:55:00,
2013-04-01 01:00:00,28.4,22.1,29.82,West,264,15.0,15.0,77,0.00,,,0.00,Wunderground v.1.15,2013-04-01 05:00:00,
2013-04-01 01:05:00,28.4,22.1,29.82,WNW,289,15.0,15.0,77,0.00,,,0.00,Wunderground v.1.15,2013-04-01 05:05:00,
2013-04-01 01:15:00,28.4,22.7,29.82,West,268,16.0,16.0,79,0.00,,,0.01,Wunderground v.1.15,2013-04-01 05:15:00,
2013-04-01 01:20:00,28.3,22.9,29.83,WSW,258,18.0,18.0,80,0.00,,,0.01,Wunderground v.1.15,2013-04-01 05:20:00,
2013-04-01 01:25:00,28.3,22.0,29.83,West,269,17.0,18.0,77,0.00,,,0.01,Wunderground v.1.15,2013-04-01 05:25:00,
2013-04-01 01:30:00,28.2,22.8,29.83,West,263,15.0,18.0,80,0.00,,,0.01,Wunderground v.1.15,2013-04-01 05:30:00,
2013-04-01 01:35:00,28.1,22.1,29.83,West,270,15.0,18.0,78,0.00,,,0.01,Wunderground v.1.15,2013-04-01 05:35:00,
2013-04-01 01:45:00,28.3,22.3,29.83,West,268,15.0,18.0,78,0.00,,,0.01,Wunderground v.1.15,2013-04-01 05:45:00,
2013-04-01 01:50:00,28.2,22.2,29.83,West,262,15.0,15.0,78,0.00,,,0.01,Wunderground v.1.15,2013-04-01 05:50:00,
2013-04-01 01:55:00,28.3,22.3,29.83,West,268,17.0,18.0,78,0.00,,,0.01,Wunderground v.1.15,2013-04-01 05:55:00,
2013-04-01 02:05:00,28.1,22.4,29.83,West,265,18.0,19.0,79,0.00,,,0.01,Wunderground v.1.15,2013-04-01 06:05:00,
2013-04-01 02:10:00,28.0,22.0,29.83,West,264,19.0,19.0,78,0.00,,,0.01,Wunderground v.1.15,2013-04-01 06:10:00,
2013-04-01 02:20:00,28.0,22.3,29.83,WSW,257,18.0,20.0,79,0.00,,,0.01,Wunderground v.1.15,2013-04-01 06:20:00,
2013-04-01 02:25:00,28.1,23.0,29.84,West,274,18.0,20.0,81,0.00,,,0.01,Wunderground v.1.15,2013-04-01 06:25:00,
2013-04-01 02:30:00,28.1,23.0,29.84,West,267,18.0,18.0,81,0.00,,,0.01,Wunderground v.1.15,2013-04-01 06:30:00,
2013-04-01 02:35:00,28.0,22.3,29.84,West,267,18.0,22.0,79,0.00,,,0.01,Wunderground v.1.15,2013-04-01 06:35:00,
2013-04-01 02:40:00,28.0,22.0,29.84,West,264,18.0,18.0,78,0.00,,,0.01,Wunderground v.1.15,2013-04-01 06:40:00,
2013-04-01 02:45:00,27.9,22.2,29.84,WNW,287,17.0,18.0,79,0.00,,,0.01,Wunderground v.1.15,2013-04-01 06:45:00,
2013-04-01 02:55:00,27.9,22.5,29.84,West,273,17.0,20.0,80,0.00,,,0.01,Wunderground v.1.15,2013-04-01 06:55:00,
2013-04-01 03:00:00,27.9,22.8,29.84,WSW,246,18.0,26.0,81,0.00,,,0.01,Wunderground v.1.15,2013-04-01 07:00:00,
2013-04-01 03:05:00,27.7,22.3,29.84,West,279,20.0,26.0,80,0.00,,,0.01,Wunderground v.1.15,2013-04-01 07:05:00,
2013-04-01 03:10:00,27.6,22.2,29.84,West,268,20.0,20.0,80,0.00,,,0.01,Wunderground v.1.15,2013-04-01 07:10:00,
2013-04-01 03:15:00,27.6,21.3,29.84,West,267,20.0,20.0,77,0.00,,,0.01,Wunderground v.1.15,2013-04-01 07:15:00,
2013-04-01 03:25:00,27.5,22.1,29.84,West,260,20.0,21.0,80,0.00,,,0.01,Wunderground v.1.15,2013-04-01 07:25:00,
2013-04-01 03:30:00,27.9,22.5,29.85,WSW,250,20.0,22.0,80,0.00,,,0.01,Wunderground v.1.15,2013-04-01 07:30:00,
2013-04-01 03:35:00,27.6,22.2,29.85,West,267,20.0,22.0,80,0.00,,,0.01,Wunderground v.1.15,2013-04-01 07:35:00,
2013-04-01 03:40:00,27.2,21.8,29.85,WSW,257,20.0,20.0,80,0.00,,,0.01,Wunderground v.1.15,2013-04-01 07:40:00,
2013-04-01 03:45:00,27.3,22.5,29.85,West,269,20.0,22.0,82,0.00,,,0.01,Wunderground v.1.15,2013-04-01 07:45:00,
2013-04-01 03:50:00,27.2,21.2,29.85,West,273,20.0,20.0,78,0.00,,,0.01,Wunderground v.1.15,2013-04-01 07:50:00,
2013-04-01 04:00:00,27.3,21.9,29.86,West,280,19.0,19.0,80,0.00,,,0.01,Wunderground v.1.15,2013-04-01 08:00:00,
2013-04-01 04:05:00,27.4,22.3,29.86,West,279,18.0,20.0,81,0.00,,,0.01,Wunderground v.1.15,2013-04-01 08:05:00,
2013-04-01 04:10:00,27.3,21.6,29.86,West,271,18.0,18.0,79,0.00,,,0.01,Wunderground v.1.15,2013-04-01 08:10:00,
2013-04-01 04:15:00,27.4,22.0,29.87,West,269,18.0,18.0,80,0.00,,,0.01,Wunderground v.1.15,2013-04-01 08:15:00,
2013-04-01 04:20:00,27.3,21.0,29.86,West,268,18.0,21.0,77,0.00,,,0.01,Wunderground v.1.15,2013-04-01 08:20:00,
2013-04-01 04:30:00,27.2,20.9,29.87,WSW,253,17.0,18.0,77,0.00,,,0.01,Wunderground v.1.15,2013-04-01 08:30:00,
2013-04-01 04:35:00,27.3,21.0,29.87,West,275,18.0,18.0,77,0.00,,,0.01,Wunderground v.1.15,2013-04-01 08:35:00,
2013-04-01 04:40:00,27.2,21.2,29.87,West,269,18.0,18.0,78,0.00,,,0.01,Wunderground v.1.15,2013-04-01 08:40:00,
2013-04-01 04:45:00,27.4,21.1,29.87,WSW,246,17.0,18.0,77,0.00,,,0.01,Wunderground v.1.15,2013-04-01 08:45:00,
2013-04-01 04:50:00,27.2,21.2,29.88,West,268,18.0,19.0,78,0.00,,,0.01,Wunderground v.1.15,2013-04-01 08:50:00,
2013-04-01 04:55:00,27.2,22.1,29.88,West,272,19.0,19.0,81,0.00,,,0.01,Wunderground v.1.15,2013-04-01 08:55:00,
2013-04-01 05:05:00,27.0,21.4,29.88,West,269,17.0,18.0,79,0.00,,,0.01,Wunderground v.1.15,2013-04-01 09:05:00,
2013-04-01 05:10:00,27.1,21.7,29.89,West,269,17.0,17.0,80,0.00,,,0.01,Wunderground v.1.15,2013-04-01 09:10:00,
2013-04-01 05:15:00,27.2,20.9,29.89,West,269,18.0,18.0,77,0.00,,,0.01,Wunderground v.1.15,2013-04-01 09:15:00,
2013-04-01 05:25:00,27.0,21.9,29.90,West,280,16.0,19.0,81,0.00,,,0.01,Wunderground v.1.15,2013-04-01 09:25:00,
2013-04-01 05:30:00,26.6,21.8,29.90,West,265,17.0,17.0,82,0.00,,,0.01,Wunderground v.1.15,2013-04-01 09:30:00,
2013-04-01 05:35:00,26.1,22.5,29.90,West,265,18.0,18.0,86,0.00,,,0.01,Wunderground v.1.15,2013-04-01 09:35:00,
2013-04-01 05:40:00,25.6,22.3,29.90,West,263,18.0,20.0,87,0.00,,,0.01,Wunderground v.1.15,2013-04-01 09:40:00,
2013-04-01 05:45:00,26.1,22.5,29.90,West,272,18.0,20.0,86,0.00,,,0.01,Wunderground v.1.15,2013-04-01 09:45:00,
2013-04-01 05:55:00,26.5,22.0,29.90,West,271,17.0,19.0,83,0.00,,,0.01,Wunderground v.1.15,2013-04-01 09:55:00,
2013-04-01 06:00:00,26.5,21.5,29.91,West,275,18.0,18.0,81,0.00,,,0.01,Wunderground v.1.15,2013-04-01 10:00:00,
2013-04-01 06:05:00,26.7,22.2,29.91,West,261,18.0,20.0,83,0.00,,,0.01,Wunderground v.1.15,2013-04-01 10:05:00,
2013-04-01 06:10:00,25.8,21.1,29.91,WNW,284,18.0,18.0,82,0.00,,,0.01,Wunderground v.1.15,2013-04-01 10:10:00,
2013-04-01 06:15:00,26.1,21.4,29.91,West,270,17.0,18.0,82,0.00,,,0.01,Wunderground v.1.15,2013-04-01 10:15:00,
2013-04-01 06:20:00,25.9,21.2,29.92,West,265,17.0,20.0,82,0.00,,,0.01,Wunderground v.1.15,2013-04-01 10:20:00,
2013-04-01 06:30:00,26.1,20.8,29.92,West,268,20.0,21.0,80,0.00,,,0.01,Wunderground v.1.15,2013-04-01 10:30:00,
2013-04-01 06:35:00,26.4,20.5,29.92,WSW,255,21.0,21.0,78,0.00,,,0.01,Wunderground v.1.15,2013-04-01 10:35:00,
2013-04-01 06:40:00,26.3,20.4,29.93,West,267,18.0,18.0,78,0.00,,,0.01,Wunderground v.1.15,2013-04-01 10:40:00,
2013-04-01 06:45:00,26.2,20.9,29.93,West,273,17.0,18.0,80,0.00,,,0.01,Wunderground v.1.15,2013-04-01 10:45:00,
2013-04-01 06:50:00,26.3,20.7,29.93,WSW,254,18.0,19.0,79,0.00,,,0.01,Wunderground v.1.15,2013-04-01 10:50:00,
2013-04-01 07:00:00,26.2,21.2,29.94,West,264,18.0,20.0,81,0.00,,,0.01,Wunderground v.1.15,2013-04-01 11:00:00,
2013-04-01 07:05:00,25.9,20.6,29.94,WSW,245,19.0,20.0,80,0.00,,,0.01,Wunderground v.1.15,2013-04-01 11:05:00,
2013-04-01 07:10:00,26.1,20.2,29.94,West,273,17.0,17.0,78,0.00,,,0.01,Wunderground v.1.15,2013-04-01 11:10:00,
2013-04-01 07:15:00,26.0,20.1,29.94,West,268,17.0,17.0,78,0.00,,,0.01,Wunderground v.1.15,2013-04-01 11:15:00,
2013-04-01 07:20:00,26.1,21.1,29.95,West,269,17.0,21.0,81,0.00,,,0.01,Wunderground v.1.15,2013-04-01 11:20:00,
2013-04-01 07:25:00,25.7,20.1,29.95,WSW,254,17.0,21.0,79,0.00,,,0.01,Wunderground v.1.15,2013-04-01 11:25:00,
2013-04-01 07:35:00,25.8,19.9,29.95,West,279,16.0,17.0,78,0.00,,,0.01,Wunderground v.1.15,2013-04-01 11:35:00,
2013-04-01 07:40:00,25.9,19.4,29.96,West,261,15.0,21.0,76,0.00,,,0.01,Wunderground v.1.15,2013-04-01 11:40:00,
2013-04-01 07:45:00,26.0,20.1,29.96,West,272,16.0,21.0,78,0.00,,,0.01,Wunderground v.1.15,2013-04-01 11:45:00,
2013-04-01 07:50:00,25.9,19.4,29.96,WSW,246,16.0,19.0,76,0.00,,,0.01,Wunderground v.1.15,2013-04-01 11:50:00,
2013-04-01 07:55:00,25.9,19.7,29.97,West,261,17.0,19.0,77,0.00,,,0.01,Wunderground v.1.15,2013-04-01 11:55:00,
2013-04-01 08:05:00,25.7,19.8,29.98,WSW,256,15.0,18.0,78,0.00,,,0.01,Wunderground v.1.15,2013-04-01 12:05:00,
2013-04-01 08:10:00,25.6,20.0,29.98,West,259,15.0,18.0,79,0.00,,,0.01,Wunderground v.1.15,2013-04-01 12:10:00,
2013-04-01 08:15:00,25.6,20.0,29.98,WSW,252,17.0,18.0,79,0.00,,,0.01,Wunderground v.1.15,2013-04-01 12:15:00,
2013-04-01 08:20:00,25.5,20.2,29.98,West,260,17.0,20.0,80,0.00,,,0.01,Wunderground v.1.15,2013-04-01 12:20:00,
2013-04-01 08:25:00,25.3,19.4,29.98,West,269,18.0,20.0,78,0.00,,,0.01,Wunderground v.1.15,2013-04-01 12:25:00,
2013-04-01 08:30:00,25.3,20.0,29.99,West,271,18.0,18.0,80,0.00,,,0.01,Wunderground v.1.15,2013-04-01 12:30:00,
2013-04-01 08:40:00,25.4,18.9,29.99,West,263,17.0,17.0,76,0.00,,,0.01,Wunderground v.1.15,2013-04-01 12:40:00,
2013-04-01 08:45:00,25.6,20.6,29.99,WSW,257,15.0,17.0,81,0.00,,,0.01,Wunderground v.1.15,2013-04-01 12:45:00,
2013-04-01 08:50:00,25.3,19.4,29.99,West,270,15.0,15.0,78,0.00,,,0.01,Wunderground v.1.15,2013-04-01 12:50:00,
2013-04-01 08:55:00,25.1,19.5,29.99,WSW,254,16.0,21.0,79,0.00,,,0.01,Wunderground v.1.15,2013-04-01 12:55:00,
2013-04-01 09:00:00,25.1,19.2,29.99,West,276,17.0,17.0,78,0.00,,,0.01,Wunderground v.1.15,2013-04-01 13:00:00,
2013-04-01 09:10:00,25.1,18.9,30.00,West,270,17.0,18.0,77,0.00,,,0.01,Wunderground v.1.15,2013-04-01 13:10:00,
2013-04-01 09:15:00,25.2,19.3,30.01,West,271,17.0,18.0,78,0.00,,,0.01,Wunderground v.1.15,2013-04-01 13:15:00,
2013-04-01 09:20:00,25.0,18.2,30.00,West,265,16.0,20.0,75,0.00,,,0.01,Wunderground v.1.15,2013-04-01 13:20:00,
2013-04-01 09:25:00,25.0,18.5,30.01,West,274,17.0,20.0,76,0.00,,,0.01,Wunderground v.1.15,2013-04-01 13:25:00,
2013-04-01 09:30:00,24.9,18.1,30.01,West,263,17.0,18.0,75,0.00,,,0.01,Wunderground v.1.15,2013-04-01 13:30:00,
2013-04-01 09:40:00,24.8,18.0,30.01,West,271,17.0,17.0,75,0.00,,,0.01,Wunderground v.1.15,2013-04-01 13:40:00,
2013-04-01 09:45:00,24.9,18.7,30.01,West,269,16.0,23.0,77,0.00,,,0.01,Wunderground v.1.15,2013-04-01 13:45:00,
2013-04-01 09:50:00,24.8,18.6,30.01,West,279,16.0,16.0,77,0.00,,,0.01,Wunderground v.1.15,2013-04-01 13:50:00,
2013-04-01 09:55:00,24.5,18.6,30.02,West,265,17.0,17.0,78,0.00,,,0.01,Wunderground v.1.15,2013-04-01 13:55:00,
2013-04-01 10:00:00,24.4,17.9,30.02,West,273,17.0,17.0,76,0.00,,,0.01,Wunderground v.1.15,2013-04-01 14:00:00,
2013-04-01 10:05:00,24.4,18.2,30.02,West,267,17.0,20.0,77,0.00,,,0.01,Wunderground v.1.15,2013-04-01 14:05:00,
2013-04-01 10:15:00,24.5,18.6,30.03,WSW,256,17.0,17.0,78,0.00,,,0.01,Wunderground v.1.15,2013-04-01 14:15:00,
2013-04-01 10:20:00,24.7,18.2,30.02,West,265,17.0,19.0,76,0.00,,,0.01,Wunderground v.1.15,2013-04-01 14:20:00,
2013-04-01 10:25:00,24.4,17.0,30.03,West,277,17.0,19.0,73,0.00,,,0.01,Wunderground v.1.15,2013-04-01 14:25:00,
2013-04-01 10:30:00,24.5,17.1,30.03,West,261,15.0,15.0,73,0.00,,,0.01,Wunderground v.1.15,2013-04-01 14:30:00,
2013-04-01 10:35:00,24.5,16.4,30.03,West,265,15.0,18.0,71,0.00,,,0.01,Wunderground v.1.15,2013-04-01 14:35:00,
2013-04-01 10:40:00,24.4,16.0,30.03,West,263,16.0,16.0,70,0.00,,,0.01,Wunderground v.1.15,2013-04-01 14:40:00,
2013-04-01 10:50:00,24.4,17.6,30.04,West,261,19.0,21.0,75,0.00,,,0.01,Wunderground v.1.15,2013-04-01 14:50:00,
2013-04-01 10:55:00,24.6,18.7,30.03,WSW,256,19.0,21.0,78,0.00,,,0.01,Wunderground v.1.15,2013-04-01 14:55:00,
2013-04-01 11:00:00,24.3,15.9,30.04,West,268,17.0,17.0,70,0.00,,,0.01,Wunderground v.1.15,2013-04-01 15:00:00,
2013-04-01 11:05:00,24.5,16.1,30.04,West,268,17.0,19.0,70,0.00,,,0.01,Wunderground v.1.15,2013-04-01 15:05:00,
2013-04-01 11:10:00,24.4,15.7,30.04,WSW,248,17.0,18.0,69,0.00,,,0.01,Wunderground v.1.15,2013-04-01 15:10:00,
2013-04-01 11:20:00,24.3,15.9,30.04,West,266,17.0,22.0,70,0.00,,,0.01,Wunderground v.1.15,2013-04-01 15:20:00,
2013-04-01 11:25:00,24.4,16.7,30.05,West,273,17.0,22.0,72,0.00,,,0.01,Wunderground v.1.15,2013-04-01 15:25:00,
2013-04-01 11:35:00,24.4,15.0,30.05,West,272,16.0,16.0,67,0.00,,,0.01,Wunderground v.1.15,2013-04-01 15:35:00,
2013-04-01 11:40:00,24.7,15.6,30.05,West,269,17.0,17.0,68,0.00,,,0.01,Wunderground v.1.15,2013-04-01 15:40:00,
2013-04-01 11:45:00,24.8,15.7,30.05,West,261,16.0,21.0,68,0.00,,,0.01,Wunderground v.1.15,2013-04-01 15:45:00,
2013-04-01 11:50:00,24.9,16.5,30.05,West,265,17.0,22.0,70,0.00,,,0.01,Wunderground v.1.15,2013-04-01 15:50:00,
2013-04-01 11:55:00,24.9,15.1,30.05,WSW,254,17.0,22.0,66,0.00,,,0.01,Wunderground v.1.15,2013-04-01 15:55:00,
2013-04-01 12:05:00,25.2,17.1,30.06,West,263,17.0,21.0,71,0.00,,,0.01,Wunderground v.1.15,2013-04-01 16:05:00,
2013-04-01 12:10:00,24.9,16.5,30.06,WSW,257,16.0,16.0,70,0.00,,,0.01,Wunderground v.1.15,2013-04-01 16:10:00,
2013-04-01 12:15:00,24.7,18.5,30.06,West,263,17.0,19.0,77,0.00,,,0.01,Wunderground v.1.15,2013-04-01 16:15:00,
2013-04-01 12:20:00,23.6,18.3,30.07,West,265,17.0,17.0,80,0.00,,,0.01,Wunderground v.1.15,2013-04-01 16:20:00,
2013-04-01 12:25:00,23.9,18.6,30.07,West,273,14.0,17.0,80,0.00,,,0.01,Wunderground v.1.15,2013-04-01 16:25:00,
2013-04-01 12:30:00,24.2,18.0,30.07,West,263,12.0,16.0,77,0.00,,,0.01,Wunderground v.1.15,2013-04-01 16:30:00,
2013-04-01 12:40:00,24.0,18.4,30.07,WSW,257,13.0,13.0,79,0.00,,,0.01,Wunderground v.1.15,2013-04-01 16:40:00,
2013-04-01 12:50:00,23.5,19.7,30.07,West,271,11.0,11.0,85,0.00,,,0.01,Wunderground v.1.15,2013-04-01 16:50:00,
2013-04-01 12:55:00,23.4,20.1,30.08,West,269,11.0,12.0,87,0.00,,,0.01,Wunderground v.1.15,2013-04-01 16:55:00,
2013-04-01 13:00:00,23.4,20.1,30.08,WNW,290,11.0,13.0,87,0.00,,,0.01,Wunderground v.1.15,2013-04-01 17:00:00,
2013-04-01 13:10:00,24.0,18.7,30.07,West,265,11.0,12.0,80,0.00,,,0.01,Wunderground v.1.15,2013-04-01 17:10:00,
2013-04-01 13:15:00,24.8,17.4,30.07,West,275,12.0,12.0,73,0.00,,,0.01,Wunderground v.1.15,2013-04-01 17:15:00,
2013-04-01 13:20:00,25.0,17.9,30.07,WSW,252,15.0,19.0,74,0.00,,,0.01,Wunderground v.1.15,2013-04-01 17:20:00,
2013-04-01 13:25:00,25.1,17.3,30.07,West,262,17.0,19.0,72,0.00,,,0.01,Wunderground v.1.15,2013-04-01 17:25:00,
2013-04-01 13:30:00,25.1,18.9,30.08,West,267,16.0,16.0,77,0.00,,,0.01,Wunderground v.1.15,2013-04-01 17:30:00,
2013-04-01 13:35:00,25.0,17.2,30.08,West,259,15.0,18.0,72,0.00,,,0.01,Wunderground v.1.15,2013-04-01 17:35:00,
2013-04-01 13:45:00,23.8,17.9,30.08,West,267,17.0,17.0,78,0.00,,,0.01,Wunderground v.1.15,2013-04-01 17:45:00,
2013-04-01 13:50:00,23.8,19.1,30.08,West,271,15.0,15.0,82,0.00,,,0.01,Wunderground v.1.15,2013-04-01 17:50:00,
2013-04-01 13:55:00,23.1,19.5,30.09,West,260,14.0,18.0,86,0.00,,,0.01,Wunderground v.1.15,2013-04-01 17:55:00,
2013-04-01 14:00:00,22.6,19.6,30.09,WNW,283,14.0,14.0,88,0.00,,,0.01,Wunderground v.1.15,2013-04-01 18:00:00,
2013-04-01 14:05:00,22.7,19.9,30.09,West,263,13.0,16.0,89,0.00,,,0.01,Wunderground v.1.15,2013-04-01 18:05:00,
2013-04-01 14:15:00,23.8,21.0,30.08,WSW,242,14.0,15.0,89,0.00,,,0.01,Wunderground v.1.15,2013-04-01 18:15:00,
2013-04-01 14:20:00,23.9,20.9,30.08,WSW,246,13.0,14.0,88,0.00,,,0.01,Wunderground v.1.15,2013-04-01 18:20:00,
2013-04-01 14:25:00,24.8,19.8,30.08,West,267,14.0,15.0,81,0.00,,,0.01,Wunderground v.1.15,2013-04-01 18:25:00,
2013-04-01 14:30:00,25.1,19.2,30.08,WSW,251,16.0,16.0,78,0.00,,,0.01,Wunderground v.1.15,2013-04-01 18:30:00,
2013-04-01 14:35:00,25.1,19.2,30.09,West,269,18.0,18.0,78,0.00,,,0.01,Wunderground v.1.15,2013-04-01 18:35:00,
2013-04-01 14:40:00,24.7,18.2,30.09,West,265,18.0,18.0,76,0.00,,,0.01,Wunderground v.1.15,2013-04-01 18:40:00,
2013-04-01 14:50:00,25.3,15.9,30.09,West,266,15.0,16.0,67,0.00,,,0.01,Wunderground v.1.15,2013-04-01 18:50:00,
2013-04-01 14:55:00,25.6,17.2,30.09,West,270,15.0,16.0,70,0.00,,,0.01,Wunderground v.1.15,2013-04-01 18:55:00,
2013-04-01 15:00:00,25.6,19.4,30.09,West,272,14.0,14.0,77,0.00,,,0.01,Wunderground v.1.15,2013-04-01 19:00:00,
2013-04-01 15:05:00,25.4,19.8,30.09,West,265,12.0,14.0,79,0.00,,,0.01,Wunderground v.1.15,2013-04-01 19:05:00,
2013-04-01 15:10:00,25.2,19.3,30.09,West,272,11.0,11.0,78,0.00,,,0.01,Wunderground v.1.15,2013-04-01 19:10:00,
2013-04-01 15:20:00,24.9,19.9,30.09,West,271,11.0,12.0,81,0.00,,,0.01,Wunderground v.1.15,2013-04-01 19:20:00,
2013-04-01 15:25:00,25.0,20.3,30.09,WSW,254,11.0,12.0,82,0.00,,,0.01,Wunderground v.1.15,2013-04-01 19:25:00,
2013-04-01 15:30:00,25.3,20.0,30.09,WNW,286,11.0,11.0,80,0.00,,,0.01,Wunderground v.1.15,2013-04-01 19:30:00,
2013-04-01 15:35:00,25.4,19.5,30.09,West,269,11.0,11.0,78,0.00,,,0.01,Wunderground v.1.15,2013-04-01 19:35:00,
2013-04-01 15:40:00,25.4,18.6,30.09,WSW,257,11.0,12.0,75,0.00,,,0.01,Wunderground v.1.15,2013-04-01 19:40:00,
2013-04-01 15:45:00,25.4,18.9,30.09,West,267,11.0,12.0,76,0.00,,,0.01,Wunderground v.1.15,2013-04-01 19:45:00,
2013-04-01 15:55:00,25.4,18.9,30.09,West,268,12.0,13.0,76,0.00,,,0.01,Wunderground v.1.15,2013-04-01 19:55:00,
2013-04-01 16:00:00,25.0,19.4,30.10,West,269,13.0,13.0,79,0.00,,,0.01,Wunderground v.1.15,2013-04-01 20:00:00,
2013-04-01 16:05:00,24.0,19.9,30.10,West,267,12.0,13.0,84,0.00,,,0.01,Wunderground v.1.15,2013-04-01 20:05:00,
2013-04-01 16:10:00,24.0,20.1,30.10,West,276,10.0,10.0,85,0.00,,,0.01,Wunderground v.1.15,2013-04-01 20:10:00,
2013-04-01 16:15:00,24.7,19.7,30.09,West,263,9.0,10.0,81,0.00,,,0.01,Wunderground v.1.15,2013-04-01 20:15:00,
2013-04-01 16:25:00,25.7,19.8,30.10,West,269,10.0,11.0,78,0.00,,,0.01,Wunderground v.1.15,2013-04-01 20:25:00,
2013-04-01 16:30:00,26.0,19.2,30.09,West,264,9.0,10.0,75,0.00,,,0.01,Wunderground v.1.15,2013-04-01 20:30:00,
2013-04-01 16:35:00,26.0,19.2,30.09,West,273,10.0,12.0,75,0.00,,,0.01,Wunderground v.1.15,2013-04-01 20:35:00,
2013-04-01 16:40:00,26.0,18.8,30.09,West,280,12.0,12.0,74,0.00,,,0.01,Wunderground v.1.15,2013-04-01 20:40:00,
2013-04-01 16:45:00,26.0,19.5,30.09,West,266,11.0,12.0,76,0.00,,,0.01,Wunderground v.1.15,2013-04-01 20:45:00,
2013-04-01 16:50:00,26.0,19.5,30.09,West,261,9.0,12.0,76,0.00,,,0.01,Wunderground v.1.15,2013-04-01 20:50:00,
2013-04-01 17:00:00,26.5,19.3,30.09,WSW,253,10.0,11.0,74,0.00,,,0.01,Wunderground v.1.15,2013-04-01 21:00:00,
2013-04-01 17:05:00,26.5,18.7,30.09,WSW,248,10.0,11.0,72,0.00,,,0.01,Wunderground v.1.15,2013-04-01 21:05:00,
2013-04-01 17:10:00,26.7,20.1,30.09,WSW,256,9.0,10.0,76,0.00,,,0.01,Wunderground v.1.15,2013-04-01 21:10:00,
2013-04-01 17:15:00,26.4,19.2,30.09,West,270,9.0,12.0,74,0.00,,,0.01,Wunderground v.1.15,2013-04-01 21:15:00,
2013-04-01 17:20:00,26.2,19.4,30.09,WSW,245,10.0,10.0,75,0.00,,,0.01,Wunderground v.1.15,2013-04-01 21:20:00,
2013-04-01 17:30:00,26.0,20.1,30.10,West,274,10.0,10.0,78,0.00,,,0.01,Wunderground v.1.15,2013-04-01 21:30:00,
2013-04-01 17:35:00,25.7,19.8,30.10,West,264,8.0,10.0,78,0.00,,,0.01,Wunderground v.1.15,2013-04-01 21:35:00,
2013-04-01 17:40:00,25.1,19.8,30.10,West,275,9.0,9.0,80,0.00,,,0.01,Wunderground v.1.15,2013-04-01 21:40:00,
2013-04-01 17:45:00,24.8,20.1,30.10,WSW,244,9.0,9.0,82,0.00,,,0.01,Wunderground v.1.15,2013-04-01 21:45:00,
2013-04-01 17:50:00,25.6,20.0,30.10,WSW,248,8.0,8.0,79,0.00,,,0.01,Wunderground v.1.15,2013-04-01 21:50:00,
2013-04-01 17:55:00,26.3,20.1,30.10,West,268,8.0,10.0,77,0.00,,,0.01,Wunderground v.1.15,2013-04-01 21:55:00,
2013-04-01 18:05:00,26.7,19.8,30.10,West,259,8.0,9.0,75,0.00,,,0.01,Wunderground v.1.15,2013-04-01 22:05:00,
2013-04-01 18:10:00,27.1,20.2,30.10,West,261,8.0,9.0,75,0.00,,,0.01,Wunderground v.1.15,2013-04-01 22:10:00,
2013-04-01 18:15:00,27.2,19.7,30.10,WSW,257,8.0,11.0,73,0.00,,,0.01,Wunderground v.1.15,2013-04-01 22:15:00,
2013-04-01 18:20:00,27.5,20.3,30.10,WSW,250,9.0,9.0,74,0.00,,,0.01,Wunderground v.1.15,2013-04-01 22:20:00,
2013-04-01 18:25:00,27.2,20.3,30.10,WSW,248,9.0,9.0,75,0.00,,,0.01,Wunderground v.1.15,2013-04-01 22:25:00,
2013-04-01 18:35:00,27.3,20.4,30.10,West,267,8.0,9.0,75,0.00,,,0.01,Wunderground v.1.15,2013-04-01 22:35:00,
2013-04-01 18:40:00,27.2,19.7,30.10,West,272,8.0,8.0,73,0.00,,,0.01,Wunderground v.1.15,2013-04-01 22:40:00,
2013-04-01 18:45:00,27.1,19.9,30.10,WNW,287,8.0,8.0,74,0.00,,,0.01,Wunderground v.1.15,2013-04-01 22:45:00,
2013-04-01 18:50:00,27.0,20.1,30.10,West,280,8.0,8.0,75,0.00,,,0.01,Wunderground v.1.15,2013-04-01 22:50:00,
2013-04-01 18:55:00,26.7,19.8,30.10,NW,321,7.0,8.0,75,0.00,,,0.01,Wunderground v.1.15,2013-04-01 22:55:00,
2013-04-01 19:00:00,26.5,20.9,30.11,West,269,5.0,5.0,79,0.00,,,0.01,Wunderground v.1.15,2013-04-01 23:00:00,
2013-04-01 19:10:00,25.5,19.9,30.11,WNW,301,4.0,4.0,79,0.00,,,0.01,Wunderground v.1.15,2013-04-01 23:10:00,
2013-04-01 19:15:00,25.2,19.9,30.11,NW,311,4.0,4.0,80,0.00,,,0.01,Wunderground v.1.15,2013-04-01 23:15:00,
2013-04-01 19:20:00,25.0,19.4,30.12,NNW,327,4.0,4.0,79,0.00,,,0.01,Wunderground v.1.15,2013-04-01 23:20:00,
2013-04-01 19:25:00,24.7,19.4,30.12,NW,310,4.0,4.0,80,0.00,,,0.01,Wunderground v.1.15,2013-04-01 23:25:00,
2013-04-01 19:30:00,24.6,19.3,30.11,NW,319,2.0,2.0,80,0.00,,,0.01,Wunderground v.1.15,2013-04-01 23:30:00,
2013-04-01 19:40:00,24.6,19.6,30.11,NNW,344,1.0,2.0,81,0.00,,,0.01,Wunderground v.1.15,2013-04-01 23:40:00,
2013-04-01 19:45:00,24.5,19.5,30.12,NW,306,2.0,5.0,81,0.00,,,0.01,Wunderground v.1.15,2013-04-01 23:45:00,
2013-04-01 19:50:00,24.3,19.6,30.12,NW,310,2.0,4.0,82,0.00,,,0.01,Wunderground v.1.15,2013-04-01 23:50:00,
2013-04-01 19:55:00,24.2,19.5,30.12,NNW,346,3.0,4.0,82,0.00,,,0.01,Wunderground v.1.15,2013-04-01 23:55:00,
2013-04-01 20:00:00,24.1,19.4,30.12,NNW,336,2.0,2.0,82,0.00,,,0.01,Wunderground v.1.15,2013-04-02 00:00:00,
2013-04-01 20:05:00,24.2,19.8,30.12,NW,325,2.0,2.0,83,0.00,,,0.01,Wunderground v.1.15,2013-04-02 00:05:00,
2013-04-01 20:15:00,24.0,20.1,30.12,NW,321,2.0,3.0,85,0.00,,,0.01,Wunderground v.1.15,2013-04-02 00:15:00,
2013-04-01 20:20:00,23.6,20.3,30.12,NW,319,2.0,6.0,87,0.00,,,0.01,Wunderground v.1.15,2013-04-02 00:20:00,
2013-04-01 20:25:00,23.3,20.3,30.12,NW,321,2.0,6.0,88,0.00,,,0.01,Wunderground v.1.15,2013-04-02 00:25:00,
2013-04-01 20:30:00,23.2,20.4,30.12,NNW,341,2.0,4.0,89,0.00,,,0.01,Wunderground v.1.15,2013-04-02 00:30:00,
2013-04-01 20:35:00,23.1,20.3,30.13,NNW,346,1.0,4.0,89,0.00,,,0.01,Wunderground v.1.15,2013-04-02 00:35:00,
2013-04-01 20:45:00,23.0,20.2,30.13,NW,315,2.0,2.0,89,0.00,,,0.01,Wunderground v.1.15,2013-04-02 00:45:00,
2013-04-01 20:50:00,22.9,20.4,30.13,NNE,22,2.0,2.0,90,0.00,,,0.01,Wunderground v.1.15,2013-04-02 00:50:00,
2013-04-01 20:55:00,22.9,20.4,30.13,NNW,328,1.0,2.0,90,0.00,,,0.01,Wunderground v.1.15,2013-04-02 00:55:00,
2013-04-01 21:00:00,22.9,20.1,30.13,NW,325,1.0,1.0,89,0.00,,,0.01,Wunderground v.1.15,2013-04-02 01:00:00,
2013-04-01 21:05:00,22.9,19.9,30.13,NNW,338,1.0,2.0,88,0.00,,,0.01,Wunderground v.1.15,2013-04-02 01:05:00,
2013-04-01 21:10:00,23.0,19.7,30.13,NW,319,1.0,3.0,87,0.00,,,0.01,Wunderground v.1.15,2013-04-02 01:10:00,
2013-04-01 21:20:00,23.1,18.4,30.14,NW,323,3.0,3.0,82,0.00,,,0.01,Wunderground v.1.15,2013-04-02 01:20:00,
2013-04-01 21:25:00,23.3,18.0,30.14,NNE,28,2.0,3.0,80,0.00,,,0.01,Wunderground v.1.15,2013-04-02 01:25:00,
2013-04-01 21:30:00,23.4,17.6,30.14,WNW,288,2.0,2.0,78,0.00,,,0.01,Wunderground v.1.15,2013-04-02 01:30:00,
2013-04-01 21:35:00,23.5,17.3,30.14,NW,322,2.0,6.0,77,0.00,,,0.01,Wunderground v.1.15,2013-04-02 01:35:00,
2013-04-01 21:40:00,23.6,16.8,30.14,NW,319,2.0,6.0,75,0.00,,,0.01,Wunderground v.1.15,2013-04-02 01:40:00,
2013-04-01 21:50:00,24.1,16.7,30.14,WNW,283,3.0,6.0,73,0.00,,,0.01,Wunderground v.1.15,2013-04-02 01:50:00,
2013-04-01 21:55:00,24.7,16.6,30.14,NW,306,6.0,10.0,71,0.00,,,0.01,Wunderground v.1.15,2013-04-02 01:55:00,
2013-04-01 22:00:00,25.3,16.5,30.14,West,276,8.0,12.0,69,0.00,,,0.01,Wunderground v.1.15,2013-04-02 02:00:00,
2013-04-01 22:10:00,25.6,15.5,30.14,NW,311,7.0,7.0,65,0.00,,,0.01,Wunderground v.1.15,2013-04-02 02:10:00,
2013-04-01 22:15:00,25.7,16.6,30.14,West,271,7.0,10.0,68,0.00,,,0.01,Wunderground v.1.15,2013-04-02 02:15:00,
2013-04-01 22:25:00,26.3,16.8,30.14,West,265,11.0,14.0,67,0.00,,,0.01,Wunderground v.1.15,2013-04-02 02:25:00,
2013-04-01 22:30:00,26.3,16.8,30.14,West,275,11.0,13.0,67,0.00,,,0.01,Wunderground v.1.15,2013-04-02 02:30:00,
2013-04-01 22:35:00,26.3,16.1,30.14,WNW,284,12.0,13.0,65,0.00,,,0.01,Wunderground v.1.15,2013-04-02 02:35:00,
2013-04-01 22:40:00,26.4,16.2,30.14,West,276,12.0,12.0,65,0.00,,,0.01,Wunderground v.1.15,2013-04-02 02:40:00,
2013-04-01 22:45:00,26.7,16.5,30.14,West,275,13.0,13.0,65,0.00,,,0.01,Wunderground v.1.15,2013-04-02 02:45:00,
2013-04-01 22:55:00,26.5,16.0,30.14,West,262,13.0,13.0,64,0.00,,,0.01,Wunderground v.1.15,2013-04-02 02:55:00,
2013-04-01 23:00:00,26.6,15.7,30.14,WSW,250,13.0,15.0,63,0.00,,,0.01,Wunderground v.1.15,2013-04-02 03:00:00,
2013-04-01 23:05:00,26.6,15.7,30.14,WSW,246,14.0,15.0,63,0.00,,,0.01,Wunderground v.1.15,2013-04-02 03:05:00,
2013-04-01 23:10:00,26.6,16.1,30.14,West,265,15.0,18.0,64,0.00,,,0.01,Wunderground v.1.15,2013-04-02 03:10:00,
2013-04-01 23:15:00,26.6,15.7,30.14,West,266,14.0,18.0,63,0.00,,,0.01,Wunderground v.1.15,2013-04-02 03:15:00,
2013-04-01 23:20:00,26.5,15.2,30.13,West,271,14.0,14.0,62,0.00,,,0.01,Wunderground v.1.15,2013-04-02 03:20:00,
2013-04-01 23:30:00,26.5,15.6,30.13,WSW,246,13.0,13.0,63,0.00,,,0.01,Wunderground v.1.15,2013-04-02 03:30:00,
2013-04-01 23:35:00,26.5,16.0,30.13,WSW,241,12.0,13.0,64,0.00,,,0.01,Wunderground v.1.15,2013-04-02 03:35:00,
2013-04-01 23:40:00,26.5,15.6,30.13,WSW,257,12.0,13.0,63,0.00,,,0.01,Wunderground v.1.15,2013-04-02 03:40:00,
2013-04-01 23:45:00,26.6,16.4,30.13,West,259,12.0,13.0,65,0.00,,,0.01,Wunderground v.1.15,2013-04-02 03:45:00,
2013-04-01 23:50:00,26.7,16.5,30.13,West,263,12.0,13.0,65,0.00,,,0.01,Wunderground v.1.15,2013-04-02 03:50:00,